Tiempo atmosférico en la estación meteorológica de Valencia Aeropuerto, València/Valencia (69 m.)



Fecha
DESCASC
Temp. máxima en grados centígrados (hora)
DESCASC
Temp. mínima en grados centígrados (hora)
DESCASC
Temp. media en grados centígrados
DESCASC
Racha de viento máxima en m/sg (hora)
DESCASC
Velocidad máxima media en intervalos de 10 minutos(hora)
DESCASC
Precipitaciones diarias en mm
DESCASC
Precipitaciones de 00:00 a 06:00 en mm
DESCASC
Precipitaciones de 06:00 a 12:00 en mm
DESCASC
Precipitaciones de 12:00 a 18:00 en mm
DESCASC
Precipitaciones de 18:00 a 24:00 en mm
DESCASC
17-09-2020 29.3 (15:30) 21.6 (05:00) 25.4 7.78 (17:00) 5 (18:20) 0 0 0 0 0
15-09-2020 30.9 (15:50) 20.6 (08:10) 25.8 7.78 (18:20) 5.56 (17:10) 0.2 0 0.2 0 0
14-09-2020 30.2 (15:10) 18.7 (05:40) 24.5 8.33 (17:50) 5 (17:40) 0 0 0 0 0
13-09-2020 31.7 (15:10) 18.1 (00:00) 24.9 8.33 (15:40) 5.28 (14:40) 0 0 0 0 0
12-09-2020 30.7 (13:40) 18.9 (07:10) 24.8 10.28 (16:30) 6.39 (16:50) 0 0 0 0 0
11-09-2020 31 (14:00) 17.3 (00:00) 24.1 8.89 (15:20) 6.39 (15:10) 0 0 0 0 0
10-09-2020 29.7 (16:00) 18.1 (00:00) 23.9 8.33 (16:00) 5.83 (17:40) 0 0 0 0 0
09-09-2020 28.2 (15:30) 18.1 (08:10) 23.2 8.89 (13:00) 6.67 (07:30) 0 0 0 0 0
08-09-2020 27.4 (15:00) 17.1 (00:00) 22.3 9.72 (04:10) 6.39 (04:10) 2.5 2.5 0 0 0
07-09-2020 25.2 (16:00) 21.3 (23:59) 23.3 12.78 (15:50) 8.61 (11:50) 0 0 0 0 0
06-09-2020 30.6 (15:10) 17.9 (00:00) 24.3 8.89 (14:40) 6.67 (18:20) 0 0 0 0 0
05-09-2020 29.8 (14:30) 18.7 (00:00) 24.3 8.89 (15:00) 6.39 (16:40) 0 0 0 0 0
04-09-2020 30.2 (14:20) 18.6 (00:00) 24.4 9.17 (16:20) 6.39 (18:00) 0 0 0 0 0
03-09-2020 30.1 (14:50) 19.7 (00:00) 24.9 9.72 (15:40) 7.22 (16:50) 0 0 0 0 0
02-09-2020 28.5 (17:00) 19.8 (00:00) 24.1 10.28 (13:40) 6.11 (09:50) 0 0 0 0 0
01-09-2020 26.8 (18:00) 17.3 (00:00) 22 7.78 (15:40) 5.83 (16:40) 0 0 0 0 0
31-08-2020 28 (14:40) 17.2 (00:00) 22.6 10.28 (16:40) 7.5 (16:40) 0 0 0 0 0
30-08-2020 26.6 (13:20) 14.9 (00:00) 20.8 9.72 (15:30) 6.94 (15:30) 0 0 0 0 0
29-08-2020 27.9 (13:10) 20.6 (00:00) 24.3 10.83 (16:40) 7.78 (16:20) 0 0 0 0 0
28-08-2020 32.5 (13:30) 23.4 (00:00) 27.9 11.39 (19:00) 7.22 (19:00) 0 0 0 0 0
27-08-2020 32.5 (14:20) 21.9 (00:00) 27.2 8.33 (14:40) 5.56 (18:30) 0 0 0 0 0
26-08-2020 32.4 (15:10) 22 (00:00) 27.2 8.33 (13:10) 5.56 (15:30) 0 0 0 0 0
25-08-2020 33 (16:30) 22.7 (00:00) 27.9 8.89 (13:50) 6.11 (13:50) 0 0 0 0 0
24-08-2020 30.8 (16:50) 24.3 (06:50) 27.5 9.72 (15:30) 6.67 (15:40) 0 0 0 0 0
23-08-2020 31.7 (15:20) 23.9 (00:00) 27.8 10.83 (16:50) 7.22 (16:50) 0 0 0 0 0
22-08-2020 32.7 (14:50) 21.3 (00:00) 27 9.17 (17:20) 6.11 (17:20) 0 0 0 0 0
21-08-2020 33.8 (14:50) 22.2 (07:00) 28 7.78 (13:10) 4.72 (16:50) 0 0 0 0 0

Gráficas

Temp. máximas Temp. mínimas Temp. medias Precipitaciones Rachas de viento máximas Velocidades máximas media en intervalos de 10 minutos

Datos horarios

Fecha y hora oficial Temperatura (ºC) Velocidad del viento (km/h) Dirección del viento Racha (km/h) Dirección de racha Precipitación (mm) Presión (hPa) Tendencia (hPa) Humedad (%)
2020-09-19 23:00:00 23.5 16 Sudoeste 24 Oeste 0 1008.6 2 53
2020-09-19 22:00:00 23.6 15 Oeste 26 Sudoeste 0 1008.1 1.9 51
2020-09-19 21:00:00 25.2 17 Sudoeste 32 Oeste 0 1007.1 1.2 44
2020-09-19 20:00:00 27 24 Oeste 42 Oeste 0 1006.6 0.6 37
2020-09-19 19:00:00 28.7 28 Oeste 42 Oeste 0 1006.2 -0.2 34
2020-09-19 18:00:00 29.4 27 Oeste 48 Oeste 0 1005.9 -1.3 33
2020-09-19 17:00:00 29.8 31 Oeste 48 Oeste 0 1006 -1.8 32
2020-09-19 16:00:00 29.3 31 Oeste 54 Oeste 0 1006.4 -2 37
2020-09-19 15:00:00 28.4 28 Oeste 46 Oeste 0 1007.2 -1.5 40
2020-09-19 14:00:00 27.9 26 Oeste 42 Oeste 0 1007.8 -0.9 42
2020-09-19 13:00:00 26.6 15 Oeste 33 Oeste 0 1008.4 -0.2 48
2020-09-19 12:00:00 25.8 29 Oeste 41 Oeste 0 1008.7 0.3 52
2020-09-19 11:00:00 24.4 13 Oeste 18 Oeste 0 1008.7 0.9 60
2020-09-19 10:00:00 21.9 5 Sur 9 Sur 0 1008.6 -- 78
2020-09-19 09:00:00 18.6 0 Calma 5 Sudoeste 0 1008.4 -- 94
2020-09-19 08:00:00 17.3 0 Calma 8 Noroeste 0 1007.8 -- 97
2020-09-19 07:00:00 17.4 3 Sudoeste 11 Oeste 0 1007.5 -- 96
2020-09-19 06:00:00 17.7 0 Calma 13 Oeste 0 1007.3 -- 97
2020-09-19 05:00:00 18.1 12 Oeste 13 Oeste 0 1007.5 -- 98
2020-09-19 04:00:00 18.6 5 Noroeste 9 Oeste 0 1007.5 -- 98
2020-09-19 03:00:00 19 3 Oeste 11 Noroeste 0 1007.8 -- 96
2020-09-19 02:00:00 19.7 8 Oeste 9 Sudoeste 0 1008.6 -- 95
2020-09-19 01:00:00 19.8 5 Noroeste 11 Noroeste 0 1009.1 -- 95
2020-09-19 00:00:00 19.6 3 Oeste 18 Oeste 0.1 1009.1 -- 94
2020-09-18 23:00:00 20.1 12 Oeste 18 Sudoeste 0.9 1009.1 -- 94
2020-09-18 22:00:00 19.9 15 Sudoeste 22 Sudoeste 0.2 1008.8 -- 94
2020-09-18 21:00:00 20.3 4 Norte 48 Oeste 2.1 1008 -- 95
2020-09-18 20:00:00 23.6 19 Nordeste 32 Nordeste 0 1005.3 -- 77
2020-09-18 19:00:00 24.7 17 Nordeste 28 Nordeste 0 1006.6 -- 72
2020-09-18 18:00:00 25.4 21 Nordeste 33 Nordeste 0 1006.6 -- 69
2020-09-18 17:00:00 24.7 18 Nordeste 28 Nordeste 0 1006.7 -- 74
2020-09-18 16:00:00 23.1 10 Este 26 Sudeste 0 1007.6 -- 78
2020-09-18 15:00:00 23.3 18 Sudeste 37 Este 0 1008.2 -- 73
2020-09-18 14:00:00 23.6 15 Sudeste 18 Sudeste 0 1008.5 -- 69
2020-09-18 13:00:00 23.4 0 Calma 9 Norte 0 1009.4 -- 70
2020-09-18 12:00:00 22.4 0 Calma 15 Oeste 0 1009.6 -- 76
2020-09-18 11:00:00 21.3 8 Oeste 17 Sur 0 1009.3 -- 81
2020-09-18 10:00:00 20.2 11 Sur 18 Nordeste 1.9 1009 -- 87
2020-09-18 09:00:00 20.6 11 Sudoeste 21 Sudoeste 2.3 1009.8 -- 84
2020-09-18 08:00:00 22.5 11 Sudoeste 21 Sudoeste 0.1 1009.5 -- 75
2020-09-18 07:00:00 23 9 Sudoeste 17 Oeste 0.1 1008.4 -- 87
2020-09-18 06:00:00 23.5 12 Oeste 17 Oeste 0 1008.3 -- 80
2020-09-18 05:00:00 23.5 9 Noroeste 17 Noroeste 0 1007.6 -- 80
2020-09-18 04:00:00 23.8 13 Noroeste 17 Noroeste 0 1007.4 -- 80
2020-09-18 03:00:00 24.5 10 Norte 15 Norte 0 1007.5 -- 81
2020-09-18 02:00:00 24.5 9 Nordeste 17 Nordeste 0 1007.8 -- 82
2020-09-18 01:00:00 24.7 12 Nordeste 17 Norte 0 1007.9 -- 84
2020-09-18 00:00:00 25.3 10 Nordeste 15 Este 0 1008.1 -- 83
2020-09-17 23:00:00 25.3 10 Este 18 Nordeste 0 1008.3 -- 82
2020-09-17 22:00:00 25.5 11 Este 18 Este 0 1008.1 -- 81
2020-09-17 21:00:00 25.7 13 Este 21 Este 0 1007.2 -- 80
2020-09-17 20:00:00 26 14 Sudeste 26 Este 0 1007.1 -- 77
2020-09-17 19:00:00 26.6 15 Este 26 Este 0 1007 -- 75
2020-09-17 18:00:00 28.1 18 Este 28 Este 0 1007 -- 63
2020-09-17 17:00:00 28.6 16 Sudeste 28 Este 0 1007.3 -- 59
2020-09-17 16:00:00 28.8 13 Sudeste 22 Sudeste 0 1007.6 -- 57
2020-09-17 15:00:00 28.4 10 Sudeste 17 Sudeste 0 1008.2 -- 59
2020-09-17 14:00:00 27.1 6 Nordeste 11 Norte 0 1008.9 -- 68
2020-09-17 13:00:00 26.4 0 Calma 8 Oeste 0 1009.6 -- 70
2020-09-17 12:00:00 25.9 5 Noroeste 11 Noroeste 0 1009.7 -- 68
2020-09-17 11:00:00 24.1 5 Noroeste 11 Noroeste 0 1009.8 -- 67
2020-09-17 10:00:00 22.7 7 Noroeste 11 Norte 0 1009.5 -- 74
2020-09-17 09:00:00 21.8 5 Oeste 13 Noroeste 0 1009.7 -- 82
2020-09-17 08:00:00 22 6 Noroeste 13 Noroeste 0 1009.1 -- 78
2020-09-17 07:00:00 22 10 Noroeste 15 Noroeste 0 1008.9 -- 76
2020-09-17 06:00:00 21.7 8 Noroeste 15 Noroeste 0 1009.4 -- 79
2020-09-17 05:00:00 21.6 11 Noroeste 15 Noroeste 0 1009.7 -- 79
2020-09-17 04:00:00 22 10 Noroeste 17 Noroeste 0 1009.8 -- 81
2020-09-17 03:00:00 22.4 12 Noroeste 17 Noroeste 0 1010.1 -- 83
2020-09-17 02:00:00 22.8 10 Norte 13 Norte 0 1010.1 -- 83
2020-09-17 01:00:00 24.4 7 Norte 13 Nordeste 0 1010.5 -- 83
2020-09-17 00:00:00 24.7 7 Nordeste 13 Nordeste 0 1010.5 -- 83
2020-09-16 23:00:00 25.1 9 Nordeste 17 Norte 0 1010.4 -- 83
2020-09-16 22:00:00 25.3 11 Nordeste 21 Nordeste 0 1010.1 -- 81
2020-09-16 21:00:00 25.5 13 Nordeste 18 Nordeste 0 1009.6 -- 79
2020-09-16 20:00:00 26.2 15 Este 22 Este 0 1009.3 -- 73
2020-09-16 19:00:00 27.4 16 Este 26 Sudeste 0 1009.1 -- 61
2020-09-16 18:00:00 28.4 19 Sudeste 26 Sudeste 0 1008.8 -- 61
2020-09-16 17:00:00 28.8 17 Este 26 Este 0 1009.4 -- 57
2020-09-16 16:00:00 29.4 18 Sudeste 26 Sudeste 0 1009.7 -- 57
2020-09-16 15:00:00 29.9 15 Sudeste 28 Sudeste 0 1010.2 -- 56
2020-09-16 14:00:00 30.9 14 Sudeste 24 Este 0 1010.8 -- 50
2020-09-16 13:00:00 29.9 10 Este 15 Nordeste 0 1011.3 -- 44
2020-09-16 12:00:00 28.8 2 Sur 11 Nordeste 0 1012 -- 47
2020-09-16 11:00:00 26 3 Norte 13 Oeste 0 1012.1 -- 55
2020-09-16 10:00:00 23.6 8 Oeste 11 Oeste 0 1012.4 -- 64
2020-09-16 09:00:00 20.5 2 Oeste 48 Norte 0 1012.2 -- 81
2020-09-16 08:00:00 18.8 7 Oeste 9 Oeste 0 1012 -- 89
2020-09-16 07:00:00 19.5 3 Noroeste -- -- 0 1011.6 -- 89
2020-09-16 06:00:00 19.4 8 Oeste 9 Oeste 0 1011.8 -- 91
2020-09-16 05:00:00 20.1 6 Noroeste 9 Oeste 0 1011.9 -- 91
2020-09-16 04:00:00 20.5 6 Oeste 9 Oeste 0 1012.3 -- 92
2020-09-16 03:00:00 21.5 6 Oeste 13 Noroeste 0 1012.6 -- 89
2020-09-16 02:00:00 21.7 7 Oeste 11 Noroeste 0 1012.8 -- 91
2020-09-16 01:00:00 22.7 10 Noroeste 13 Noroeste 0 1012.9 -- 88
2020-09-16 00:00:00 23.5 10 Noroeste 13 Noroeste 0 1013.2 -- 87
2020-09-15 23:00:00 24.1 6 Noroeste 11 Norte 0 1013 -- 84
2020-09-15 22:00:00 25 6 Norte 11 Sudeste 0 1012.9 -- 81
2020-09-15 21:00:00 25 7 Sudeste 17 Sudeste 0 1012.3 -- 82
2020-09-15 20:00:00 25.9 14 Sudeste 21 Este 0 1011.8 -- 76
2020-09-15 19:00:00 27.2 17 Sudeste 28 Sudeste 0 1011.6 -- 66
2020-09-15 18:00:00 27.8 19 Sudeste 26 Sudeste 0 1011.8 -- 62
2020-09-15 17:00:00 28.6 18 Sudeste 26 Sudeste 0 1011.9 -- 55
2020-09-15 16:00:00 30.6 15 Este 22 Este 0 1012.3 -- 49
2020-09-15 15:00:00 30 15 Sudeste 26 Sudeste 0 1012.9 -- 53
2020-09-15 14:00:00 29.8 9 Este 22 Este 0 1013.1 -- 46
2020-09-15 13:00:00 30.6 8 Sudoeste 17 Sudoeste 0 1014.4 -- 41
2020-09-15 12:00:00 28.8 2 Sudeste 13 Sudoeste 0 1014.9 -- 48
2020-09-15 11:00:00 25.8 3 Oeste 13 Norte 0 1014.8 -- 67
2020-09-15 10:00:00 23.1 8 Noroeste 11 Noroeste 0 1014.4 -- 79
2020-09-15 09:00:00 21.5 11 Noroeste 15 Noroeste 0 1014.2 -- 88
2020-09-15 08:00:00 21.1 8 Oeste 26 Norte 0.2 1014.2 -- 87
2020-09-15 07:00:00 21.4 12 Noroeste 18 Noroeste 0 1013.6 -- 84
2020-09-15 06:00:00 22 9 Oeste 26 Norte 0 1013.8 -- 84
2020-09-15 05:00:00 22.7 17 Noroeste 24 Noroeste 0 1014.3 -- 85
2020-09-15 04:00:00 22.7 8 Oeste 15 Sudoeste 0 1014.1 -- 87
2020-09-15 03:00:00 23.5 9 Este 24 Este 0 1014 -- 77
2020-09-15 02:00:00 24 10 Norte 13 Norte 0 1015.1 -- 79
2020-09-15 01:00:00 24 8 Oeste 15 Oeste 0 1016.1 -- 83
2020-09-15 00:00:00 24.5 0 Calma 17 Nordeste 0 1015.4 -- 79
2020-09-14 23:00:00 24.4 3 Este 5 Este 0 1015.1 -- 77
2020-09-14 22:00:00 25 6 Este 13 Este 0 1015.1 -- 78
2020-09-14 21:00:00 25.3 9 Este 18 Este 0 1014.4 -- 78
2020-09-14 20:00:00 26.2 15 Este 22 Este 0 1013.6 -- 64
2020-09-14 19:00:00 27.9 15 Este 28 Este 0 1013.6 -- 54
2020-09-14 18:00:00 29.3 16 Este 30 Este 0 1013.8 -- 48
2020-09-14 17:00:00 29.5 17 Este 26 Este 0 1014 -- 51
2020-09-14 16:00:00 29.9 15 Este 28 Nordeste 0 1014.6 -- 44
2020-09-14 15:00:00 29.6 17 Este 28 Este 0 1015.3 -- 40
2020-09-14 14:00:00 29.7 13 Este 24 Nordeste 0 1015.7 -- 38
2020-09-14 13:00:00 29.4 10 Este 17 Este 0 1015.9 -- 37
2020-09-14 12:00:00 27.7 4 Este 17 Este 0 1016.4 -- 40
2020-09-14 11:00:00 26.1 3 Este 11 Oeste 0 1016.4 -- 44
2020-09-14 10:00:00 22 11 Oeste 17 Noroeste 0 1016.2 -- 55
2020-09-14 09:00:00 21.1 11 Noroeste 17 Noroeste 0 1015.8 -- 57
2020-09-14 08:00:00 18.8 4 Oeste 11 Noroeste 0 1015.6 -- 69
2020-09-14 07:00:00 19.7 8 Oeste 15 Noroeste 0 1015.2 -- 63
2020-09-14 06:00:00 18.7 5 Oeste 9 Oeste 0 1015.1 -- 68
2020-09-14 05:00:00 19.9 7 Oeste 11 Oeste 0 1015.4 -- 63
2020-09-14 04:00:00 19.9 5 Oeste 13 Noroeste 0 1015.6 -- 64
2020-09-14 03:00:00 20 6 Noroeste 17 Noroeste 0 1015.8 -- 65
2020-09-14 02:00:00 21.3 11 Noroeste 15 Noroeste 0 1016.2 -- 60
2020-09-14 01:00:00 21 8 Noroeste 11 Oeste 0 1016.4 -- 69
2020-09-14 00:00:00 22.2 5 Oeste 13 Noroeste 0 1016.4 -- 66
2020-09-13 23:00:00 23.3 9 Oeste 11 Oeste 0 1016.1 -- 65
2020-09-13 22:00:00 25.3 6 Este 8 Este 0 1015.9 -- 64
2020-09-13 21:00:00 26.3 7 Sur 13 Sudeste 0 1015.4 -- 52
2020-09-13 20:00:00 27.6 9 Sur 18 Sudeste 0 1015 -- 45
2020-09-13 19:00:00 29.3 14 Este 24 Este 0 1015 -- 38
2020-09-13 18:00:00 30.9 18 Este 28 Sudeste 0 1014.7 -- 31
2020-09-13 17:00:00 31.2 18 Sudeste 28 Sudeste 0 1014.8 -- 30
2020-09-13 16:00:00 31.4 18 Sudeste 30 Sudeste 0 1015.1 -- 31
2020-09-13 15:00:00 31.3 18 Sudeste 28 Este 0 1015.5 -- 31
2020-09-13 14:00:00 31.2 17 Sudeste 28 Sudeste 0 1015.7 -- 33
2020-09-13 13:00:00 31.2 11 Este 22 Nordeste 0 1015.8 -- 34
2020-09-13 12:00:00 30.4 8 Este 17 Este 0 1016.1 -- 36
2020-09-13 11:00:00 27.6 3 Noroeste 17 Noroeste 0 1015.8 -- 43
2020-09-13 10:00:00 24.8 11 Noroeste 17 Noroeste 0 1015.3 -- 51
2020-09-13 09:00:00 20.9 9 Sudoeste 17 Noroeste 0 1015.1 -- 69
2020-09-13 08:00:00 18.2 11 Oeste 13 Oeste 0 1014.6 -- 81
2020-09-13 07:00:00 18.5 9 Oeste 13 Oeste 0 1014.1 -- 83
2020-09-13 06:00:00 19.2 6 Oeste 11 Noroeste 0 1013.8 -- 81
2020-09-13 05:00:00 19.5 3 Oeste 8 Oeste 0 1014 -- 83
2020-09-13 04:00:00 19.7 6 Noroeste 11 Oeste 0 1014 -- 83
2020-09-13 03:00:00 20.4 7 Oeste 11 Noroeste 0 1014.1 -- 82
2020-09-13 02:00:00 21.7 11 Noroeste 18 Noroeste 0 1014.3 -- 76
2020-09-13 01:00:00 22.6 15 Noroeste 18 Noroeste 0 1014.5 -- 74
2020-09-13 00:00:00 23 8 Noroeste 11 Noroeste 0 1014.2 -- 79
2020-09-12 23:00:00 24.6 7 Norte 13 Norte 0 1013.8 -- 78
2020-09-12 22:00:00 25.3 8 Nordeste 17 Nordeste 0 1013.2 -- 75
2020-09-12 21:00:00 25.6 13 Este 21 Este 0 1012.2 -- 69
2020-09-12 20:00:00 26.8 15 Este 28 Este 0 1011.6 -- 56
2020-09-12 19:00:00 28 19 Este 30 Este 0 1011.2 -- 54
2020-09-12 18:00:00 29.1 21 Sudeste 32 Sudeste 0 1010.8 -- 49
2020-09-12 17:00:00 30.1 22 Sudeste 37 Este 0 1010.5 -- 41
2020-09-12 16:00:00 29.6 22 Este 33 Este 0 1010.6 -- 54
2020-09-12 15:00:00 30 21 Nordeste 30 Este 0 1010.6 -- 55
2020-09-12 14:00:00 30.2 14 Este 26 Este 0 1010.9 -- 53
2020-09-12 13:00:00 29.8 10 Este 21 Este 0 1011.1 -- 46
2020-09-12 12:00:00 28.1 3 Norte 11 Nordeste 0 1011.4 -- 52
2020-09-12 11:00:00 27.2 4 Oeste 15 Noroeste 0 1011.3 -- 48
2020-09-12 10:00:00 23.6 10 Noroeste 21 Noroeste 0 1010.9 -- 49
2020-09-12 09:00:00 20.6 12 Noroeste 21 Noroeste 0 1010.5 -- 60
2020-09-12 08:00:00 19.2 14 Noroeste 18 Noroeste 0 1009.8 -- 68
2020-09-12 07:00:00 19.1 8 Noroeste 15 Noroeste 0 1009.5 -- 69
2020-09-12 06:00:00 19.3 10 Noroeste 17 Noroeste 0 1009.1 -- 70
2020-09-12 05:00:00 20.3 13 Noroeste 17 Noroeste 0 1008.9 -- 66
2020-09-12 04:00:00 21.5 8 Noroeste 11 Norte 0 1008.6 -- 67
2020-09-12 03:00:00 21.7 7 Norte -- -- -- 1008.6 -- 71
2020-09-12 02:00:00 22.3 9 Noroeste 15 Noroeste 0 1008.6 -- 68
2020-09-12 01:00:00 23.7 8 Noroeste 17 Norte 0 1008.5 -- 71
2020-09-12 00:00:00 24.5 10 Nordeste 15 Nordeste 0 1008.1 -- 69
2020-09-11 23:00:00 24.7 9 Nordeste 21 Nordeste 0 1007.7 -- 71
2020-09-11 22:00:00 25.3 12 Nordeste 24 Nordeste 0 1007.4 -- 71
2020-09-11 21:00:00 25.8 16 Nordeste 24 Nordeste 0 1006.5 -- 70
2020-09-11 20:00:00 26.9 18 Nordeste 24 Nordeste 0 1006.1 -- 64
2020-09-11 19:00:00 28.4 14 Nordeste 26 Nordeste 0 1005.7 -- 53
2020-09-11 18:00:00 28.8 17 Este 30 Este 0 1005.6 -- 56
2020-09-11 17:00:00 29.6 21 Este 30 Este 0 1005.8 -- 45
2020-09-11 16:00:00 29.7 22 Sudeste 32 Este 0 1006 -- 49
2020-09-11 15:00:00 29.8 23 Sudeste 30 Este 0 1006.1 -- 45
2020-09-11 14:00:00 30.8 15 Sudeste 24 Sudeste 0 1006.5 -- 40
2020-09-11 13:00:00 30.2 12 Este 21 Sudeste 0 1007 -- 39
2020-09-11 12:00:00 29.1 9 Este 17 Este 0 1007.5 -- 38
2020-09-11 11:00:00 27 0 Calma 9 Sur 0 1007.7 -- 42
2020-09-11 10:00:00 23.7 3 Sur 8 Sur 0 1007.6 -- 50
2020-09-11 09:00:00 19.9 0 Calma 8 Noroeste 0 1007.6 -- 66
2020-09-11 08:00:00 17.3 3 Oeste 9 Oeste 0 1007.3 -- 75
2020-09-11 07:00:00 17.4 7 Oeste 13 Noroeste 0 1007.4 -- 79
2020-09-11 06:00:00 17.8 11 Oeste 17 Oeste 0 1007.7 -- 77
2020-09-11 05:00:00 18.2 6 Oeste 13 Noroeste 0 1008 -- 78
2020-09-11 04:00:00 19 7 Noroeste 17 Oeste 0 1008.4 -- 76
2020-09-11 03:00:00 19.5 10 Noroeste -- -- -- 1008.7 -- 77
2020-09-11 02:00:00 20.1 2 Noroeste 13 Noroeste 0 1009.1 -- 80
2020-09-11 01:00:00 21.1 10 Noroeste 13 Noroeste 0 1009.4 -- 75
2020-09-11 00:00:00 22 8 Noroeste 9 Noroeste 0 1009.7 -- 75
2020-09-10 23:00:00 23.2 0 Calma 8 Sudeste 0 1009.6 -- 68
2020-09-10 22:00:00 23.6 5 Sudeste 11 Sudeste 0 1009.5 -- 67
2020-09-10 21:00:00 24.4 9 Sudeste 15 Este 0 1008.9 -- 63
2020-09-10 20:00:00 25.5 12 Sudeste 22 Sudeste 0 1008.7 -- 55
2020-09-10 19:00:00 26.6 15 Sudeste 22 Sudeste 0 1008.4 -- 53
2020-09-10 18:00:00 26.7 19 Sudeste 28 Este 0 1008.5 -- 47
2020-09-10 17:00:00 27.8 18 Este 28 Sudeste 0 1009 -- 43
2020-09-10 16:00:00 29.3 19 Este 30 Sudeste 0 1009.4 -- 38
2020-09-10 15:00:00 28.8 15 Sudeste 26 Este 0 1010 -- 42
2020-09-10 14:00:00 28.1 13 Este 22 Este 0 1010.7 -- 40
2020-09-10 13:00:00 27.4 8 Este 18 Este 0 1011.5 -- 46
2020-09-10 12:00:00 26 4 Nordeste 9 Nordeste 0 1012 -- 51
2020-09-10 11:00:00 24.8 2 Norte 8 Norte 0 1012.3 -- 61
2020-09-10 10:00:00 22.5 0 Calma 11 Noroeste 0 1012.2 -- 69
2020-09-10 09:00:00 20.1 6 Oeste 9 Oeste 0 1011.9 -- 79
2020-09-10 08:00:00 18.2 6 Oeste 8 Oeste 0 1011.5 -- 86
2020-09-10 07:00:00 19 0 Calma 9 Noroeste 0 1011.2 -- 85
2020-09-10 06:00:00 18.9 4 Oeste 11 Noroeste 0 1011.2 -- 87
2020-09-10 05:00:00 19.1 6 Noroeste 11 Norte 0 1011.5 -- 87
2020-09-10 04:00:00 19.4 7 Oeste 17 Oeste 0 1011.9 -- 86
2020-09-10 03:00:00 19.5 11 Noroeste -- -- -- 1012.4 -- 85
2020-09-10 02:00:00 19.6 12 Noroeste 15 Noroeste 0 1013 -- 84
2020-09-10 01:00:00 19.8 9 Noroeste -- -- 0 1013.2 -- 81
2020-09-10 00:00:00 20.7 4 Noroeste 9 Este 0 1013.4 -- 77
2020-09-09 23:00:00 21.7 5 Este 15 Este 0 1013.2 -- 73
2020-09-09 22:00:00 22.1 8 Este 15 Nordeste 0 1012.9 -- 73
2020-09-09 21:00:00 22.8 9 Este 13 Este 0 1012.3 -- 72
2020-09-09 20:00:00 23.5 9 Este 21 Este 0 1012 -- 69
2020-09-09 19:00:00 24.3 14 Este 26 Este 0 1012.5 -- 65
2020-09-09 18:00:00 24.6 18 Este 26 Este 0 1012.3 -- 65
2020-09-09 17:00:00 24.8 15 Este 28 Este 0 1012.5 -- 62
2020-09-09 16:00:00 27.5 19 Este 32 Este 0 1012.4 -- 48
2020-09-09 15:00:00 26.8 13 Este 24 Este 0 1012.8 -- 52
2020-09-09 14:00:00 26.9 15 Este 24 Este 0 1013.2 -- 48
2020-09-09 13:00:00 26.5 15 Sudeste 32 Este 0 1013.8 -- 50
2020-09-09 12:00:00 26.4 6 Sudeste 18 Norte 0 1014.3 -- 45
2020-09-09 11:00:00 24.8 7 Noroeste 17 Noroeste 0 1014.5 -- 47
2020-09-09 10:00:00 22.3 14 Noroeste 30 Noroeste 0 1014.2 -- 46
2020-09-09 09:00:00 19.6 20 Noroeste 28 Noroeste 0 1014.1 -- 53
2020-09-09 08:00:00 18.3 19 Noroeste 30 Noroeste 0 1013.6 -- 57
2020-09-09 07:00:00 18.5 18 Noroeste 28 Noroeste 0 1013.4 -- 57
2020-09-09 06:00:00 18.8 20 Noroeste 26 Noroeste 0 1013.4 -- 56
2020-09-09 05:00:00 18.4 10 Noroeste 13 Noroeste 0 1013.5 -- 60
2020-09-09 04:00:00 18.6 8 Noroeste 15 Noroeste 0 1013.6 -- 60
2020-09-09 03:00:00 19.4 13 Noroeste -- -- -- 1014.1 -- 56
2020-09-09 02:00:00 19.6 8 Noroeste 13 Norte 0 1014.4 -- 58
2020-09-09 01:00:00 20.1 9 Oeste 13 Noroeste 0 1014.8 -- 60
2020-09-09 00:00:00 20.6 8 Oeste 11 Oeste 0 1015.1 -- 60
2020-09-08 23:00:00 21.4 5 Oeste -- -- 0 1015 -- 56
2020-09-08 22:00:00 23.6 7 Norte 15 Nordeste 0 1015.2 -- 48
2020-09-08 21:00:00 23.8 7 Nordeste 13 Nordeste 0 1014.6 -- 46
2020-09-08 20:00:00 24.1 10 Este 22 Este 0 1014.6 -- 44
2020-09-08 19:00:00 24.9 12 Este 24 Este 0 1014.6 -- 38
2020-09-08 18:00:00 25.8 14 Sudeste 26 Sudeste 0 1014.4 -- 38
2020-09-08 17:00:00 26.6 18 Sudeste 30 Sudeste 0 1014.4 -- 35
2020-09-08 16:00:00 26.9 17 Sudeste 30 Este 0 1014.6 -- 35
2020-09-08 15:00:00 27.1 15 Este 26 Este 0 1015 -- 33
2020-09-08 14:00:00 26.3 12 Este 24 Este 0 1015.3 -- 33
2020-09-08 13:00:00 25.9 10 Este 21 Este 0 1015.6 -- 36
2020-09-08 12:00:00 25.2 2 Sur 15 Noroeste 0 1016 -- 40
2020-09-08 11:00:00 22.8 9 Noroeste 22 Oeste 0 1016.1 -- 53
2020-09-08 10:00:00 20.9 15 Noroeste 24 Noroeste 0 1016 -- 64
2020-09-08 09:00:00 18.7 17 Noroeste 22 Noroeste 0 1015.8 -- 73
2020-09-08 08:00:00 17.5 9 Noroeste 15 Noroeste 0 1015.5 -- 89
2020-09-08 07:00:00 18 6 Noroeste 18 Este 0 1014.9 -- 88
2020-09-08 06:00:00 18.8 12 Nordeste 24 Nordeste 0 1014.9 -- 84
2020-09-08 05:00:00 18.3 16 Nordeste 35 Nordeste 1.7 1014.8 -- 87
2020-09-08 04:00:00 19.8 23 Nordeste 33 Nordeste 0.7 1014.5 -- 82
2020-09-08 03:00:00 19.6 4 Norte -- -- -- 1014.1 -- 79
2020-09-08 02:00:00 19.8 12 Noroeste 17 Noroeste 0 1014.1 -- 74
2020-09-08 01:00:00 20.2 15 Noroeste 18 Noroeste 0 1014.1 -- 73
2020-09-08 00:00:00 21.4 6 Norte 15 Norte 0 1014.1 -- 69
2020-09-07 23:00:00 22.2 12 Norte 17 Norte 0 1013.8 -- 66
2020-09-07 22:00:00 22.4 11 Este 24 Este 0 1013.4 -- 65
2020-09-07 21:00:00 22.4 16 Este 28 Este 0 1012.6 -- 65
2020-09-07 20:00:00 23.1 17 Este 30 Este 0 1012.2 -- 62
2020-09-07 19:00:00 23.5 19 Este 37 Este 0 1011.8 -- 61
2020-09-07 18:00:00 24.2 27 Este 37 Este 0 1011.4 -- 62
2020-09-07 17:00:00 24.1 25 Este 41 Este 0 1011 -- 61
2020-09-07 16:00:00 24.8 27 Este 46 Este 0 1011 -- 57
2020-09-07 15:00:00 24.4 27 Este 41 Este 0 1011.4 -- 51
2020-09-07 14:00:00 23.8 27 Este 39 Este 0 1011.1 -- 48
2020-09-07 13:00:00 23.5 19 Este 42 Este 0 1011 -- 44
2020-09-07 12:00:00 22.6 30 Nordeste 45 Este 0 1011.2 -- 49
2020-09-07 11:00:00 22.5 23 Este 33 Este 0 1010.9 -- 57
2020-09-07 10:00:00 23.1 20 Este 33 Este 0 1009.9 -- 58
2020-09-07 09:00:00 23.1 12 Este 21 Este 0 1009.2 -- 65
2020-09-07 08:00:00 21.9 10 Noroeste 17 Norte 0 1008.6 -- 77
2020-09-07 07:00:00 21.9 10 Noroeste 26 Norte 0 1008 -- 78
2020-09-07 06:00:00 21.8 15 Noroeste 21 Noroeste 0 1007.7 -- 80
2020-09-07 05:00:00 21.6 3 Oeste 11 Noroeste 0 1007.7 -- 81
2020-09-07 04:00:00 22.2 9 Noroeste 15 Noroeste 0 1007.8 -- 79
2020-09-07 03:00:00 22.8 12 Noroeste -- -- -- 1008.4 -- 78
2020-09-07 02:00:00 23.2 10 Noroeste 13 Noroeste 0 1008.9 -- 81
2020-09-07 01:00:00 24.2 10 Norte 13 Norte 0 1008.9 -- 78
2020-09-07 00:00:00 24.5 0 Calma 11 Sudeste 0 1008.7 -- 77
2020-09-06 23:00:00 24.7 9 Este 15 Sudeste 0 1008.7 -- 76
2020-09-06 22:00:00 24.9 10 Sudeste 17 Este 0 1008.5 -- 75
2020-09-06 21:00:00 25 13 Sudeste 22 Sudeste 0 1008 -- 74
2020-09-06 20:00:00 25.7 15 Sudeste 28 Sudeste 0 1007.7 -- 70
2020-09-06 19:00:00 27.1 19 Sudeste 30 Sudeste 0 1007.7 -- 60
2020-09-06 18:00:00 28.2 21 Sudeste 30 Sudeste 0 1007.7 -- 54
2020-09-06 17:00:00 29.2 19 Este 28 Este 0 1008.1 -- 46
2020-09-06 16:00:00 29.7 17 Sudeste 32 Este 0 1008.3 -- 41
2020-09-06 15:00:00 30.2 15 Sudeste 32 Sudeste 0 1009.2 -- 39
2020-09-06 14:00:00 29.9 13 Sudeste 22 Este 0 1009.6 -- 40
2020-09-06 13:00:00 29.7 9 Sudeste 18 Sudeste 0 1010.1 -- 44
2020-09-06 12:00:00 28.2 7 Este 13 Este 0 1010.5 -- 46
2020-09-06 11:00:00 26.7 3 Sudeste 11 Este 0 1010.6 -- 51
2020-09-06 10:00:00 23.5 3 Noroeste 9 Oeste 0 1010.4 -- 63
2020-09-06 09:00:00 20.7 4 Oeste 8 Oeste 0 1010.3 -- 76
2020-09-06 08:00:00 18.1 6 Oeste -- -- 0 1010.1 -- 87
2020-09-06 07:00:00 18.2 6 Oeste 11 Oeste 0 1009.9 -- 87
2020-09-06 06:00:00 19.1 8 Sudoeste 11 Oeste 0 1009.8 -- 85
2020-09-06 05:00:00 19.5 6 Oeste 13 Noroeste 0 1010 -- 87
2020-09-06 04:00:00 20 6 Oeste 13 Noroeste 0 1010.4 -- 88
2020-09-06 03:00:00 20.7 9 Noroeste -- -- -- 1010.8 -- 85
2020-09-06 02:00:00 21.2 0 Calma 8 Noroeste 0 1011.2 -- 85
2020-09-06 01:00:00 21.9 6 Oeste 9 Noroeste 0 1011.5 -- 85
2020-09-06 00:00:00 22.7 8 Noroeste 11 Norte 0 1011.7 -- 82
2020-09-05 23:00:00 24.3 7 Nordeste 13 Norte 0 1011.6 -- 78
2020-09-05 22:00:00 24.4 5 Este 15 Este 0 1011.6 -- 76
2020-09-05 21:00:00 24.9 10 Sudeste 17 Sudeste 0 1011 -- 72
2020-09-05 20:00:00 26 13 Sudeste 22 Sudeste 0 1010.6 -- 62
2020-09-05 19:00:00 27.1 17 Sudeste 26 Sudeste 0 1010.7 -- 60
2020-09-05 18:00:00 28 17 Sudeste 26 Sudeste 0 1010.6 -- 53
2020-09-05 17:00:00 29 21 Este 32 Este 0 1010.9 -- 49
2020-09-05 16:00:00 28.9 21 Sudeste 32 Este 0 1011.2 -- 47
2020-09-05 15:00:00 29.3 17 Sudeste 32 Sudeste 0 1011.8 -- 44
2020-09-05 14:00:00 28.9 12 Este 28 Este 0 1012.1 -- 45
2020-09-05 13:00:00 28.6 9 Sudeste 28 Este 0 1012.6 -- 49
2020-09-05 12:00:00 27.6 9 Sur 17 Sudoeste 0 1013.2 -- 52
2020-09-05 11:00:00 25.7 5 Norte 13 Noroeste 0 1013.5 -- 57
2020-09-05 10:00:00 23.2 7 Noroeste 13 Noroeste 0 1013.5 -- 63
2020-09-05 09:00:00 21 8 Noroeste 13 Noroeste 0 1013.4 -- 72
2020-09-05 08:00:00 18.9 5 Oeste 15 Oeste 0 1013.6 -- 82
2020-09-05 07:00:00 19.2 11 Oeste 18 Oeste 0 1013.2 -- 81
2020-09-05 06:00:00 19.7 14 Noroeste 21 Noroeste 0 1013.3 -- 80
2020-09-05 05:00:00 19.9 12 Noroeste 17 Noroeste 0 1013.4 -- 81
2020-09-05 04:00:00 19.9 8 Oeste 15 Noroeste 0 1013.9 -- 85
2020-09-05 03:00:00 20.7 8 Noroeste 18 Noroeste 0 1014.5 -- 82
2020-09-05 02:00:00 21.5 13 Noroeste 17 Noroeste 0 1014.8 -- 80
2020-09-05 01:00:00 21.9 7 Noroeste 11 Noroeste 0 1015.3 -- 80
2020-09-05 00:00:00 22.8 9 Noroeste 11 Noroeste 0 1015.6 -- 78
2020-09-04 23:00:00 23.5 0 Calma 8 Sudeste 0 1015.4 -- 76
2020-09-04 22:00:00 24 0 Calma 13 Sudeste 0 1015.2 -- 74
2020-09-04 21:00:00 24.7 10 Sudeste 21 Sudeste 0 1014.8 -- 71
2020-09-04 20:00:00 25.7 16 Sudeste 28 Sudeste 0 1014.5 -- 66
2020-09-04 19:00:00 26.9 21 Sudeste 32 Sudeste 0 1014.7 -- 58
2020-09-04 18:00:00 28.3 23 Sudeste 30 Sudeste 0 1014.7 -- 51
2020-09-04 17:00:00 28.7 20 Sudeste 33 Sudeste 0 1015.1 -- 50
2020-09-04 16:00:00 29.1 22 Sudeste 32 Sudeste 0 1015.6 -- 48
2020-09-04 15:00:00 29.9 20 Sudeste 30 Este 0 1016.3 -- 41
2020-09-04 14:00:00 29.6 12 Sudeste 26 Sudeste 0 1016.8 -- 39
2020-09-04 13:00:00 29 13 Sudeste 22 Sudeste 0 1017.3 -- 43
2020-09-04 12:00:00 27.5 3 Este 15 Sudeste 0 1017.6 -- 49
2020-09-04 11:00:00 25.8 2 Noroeste 21 Noroeste 0 1017.9 -- 56
2020-09-04 10:00:00 23 11 Noroeste 18 Noroeste 0 1017.5 -- 55
2020-09-04 09:00:00 20.8 13 Noroeste 17 Noroeste 0 1017.2 -- 65
2020-09-04 08:00:00 18.6 6 Oeste 21 Noroeste 0 1016.6 -- 76
2020-09-04 07:00:00 19.5 16 Noroeste 22 Noroeste 0 1016 -- 71
2020-09-04 06:00:00 19.6 15 Noroeste 18 Noroeste 0 1015.6 -- 72
2020-09-04 05:00:00 19.9 15 Noroeste 22 Noroeste 0 1015.7 -- 72
2020-09-04 04:00:00 20.2 18 Noroeste 22 Noroeste 0 1015.8 -- 70
2020-09-04 03:00:00 20.8 11 Noroeste 17 Norte 0 1016.2 -- 70
2020-09-04 02:00:00 21.5 10 Noroeste 13 Noroeste 0 1016.7 -- 72
2020-09-04 01:00:00 22.7 8 Noroeste 13 Norte 0 1016.9 -- 73
2020-09-04 00:00:00 23.8 8 Norte 15 Norte 0 1016.7 -- 70
2020-09-03 23:00:00 24.5 8 Norte 13 Este 0 1016.5 -- 68
2020-09-03 22:00:00 25.1 9 Este 15 Sudeste 0 1015.9 -- 65
2020-09-03 21:00:00 25.2 10 Este 24 Sudeste 0 1015.2 -- 65
2020-09-03 20:00:00 26.4 17 Sudeste 28 Sudeste 0 1014.7 -- 55
2020-09-03 19:00:00 27.4 20 Sudeste 33 Sudeste 0 1014.5 -- 51
2020-09-03 18:00:00 28 23 Este 33 Este 0 1014.1 -- 53
2020-09-03 17:00:00 28.4 23 Sudeste 35 Este 0 1014.2 -- 50
2020-09-03 16:00:00 28.9 25 Sudeste 35 Sudeste 0 1014.2 -- 47
2020-09-03 15:00:00 29.4 21 Este 33 Este 0 1014.3 -- 46
2020-09-03 14:00:00 29.2 15 Este 26 Este 0 1014.5 -- 50
2020-09-03 13:00:00 28.4 11 Este 18 Sudeste 0 1014.6 -- 52
2020-09-03 12:00:00 27.5 5 Sudeste 15 Sudeste 0 1014.8 -- 57
2020-09-03 11:00:00 26.6 3 Este 15 Norte 0 1014.7 -- 61
2020-09-03 10:00:00 23.5 13 Noroeste 32 Noroeste 0 1014.2 -- 67
2020-09-03 09:00:00 21.8 12 Noroeste 17 Noroeste 0 1013.8 -- 73
2020-09-03 08:00:00 19.9 9 Noroeste 13 Noroeste 0 1013.3 -- 81
2020-09-03 07:00:00 19.9 8 Noroeste 17 Noroeste 0 1012.8 -- 82
2020-09-03 06:00:00 20.2 12 Noroeste 21 Noroeste 0 1012.4 -- 82
2020-09-03 05:00:00 20.7 16 Noroeste 21 Noroeste 0 1012.2 -- 81
2020-09-03 04:00:00 20.9 11 Noroeste 15 Noroeste 0 1012.1 -- 80
2020-09-03 03:00:00 21.6 7 Noroeste 15 Noroeste 0 1012.3 -- 77
2020-09-03 02:00:00 22.5 8 Noroeste 13 Noroeste 0 1012.4 -- 74
2020-09-03 01:00:00 22.8 10 Noroeste 13 Norte 0 1012.3 -- 73
2020-09-03 00:00:00 23.9 8 Norte 13 Este 0 1012.1 -- 69
2020-09-02 23:00:00 24.3 8 Este 13 Sudeste 0 1011.6 -- 70
2020-09-02 22:00:00 24.5 10 Sudeste 18 Este 0 1011.1 -- 69
2020-09-02 21:00:00 24.9 14 Este 21 Sudeste 0 1010.1 -- 65
2020-09-02 20:00:00 25.6 14 Sudeste 26 Este 0 1009.5 -- 61
2020-09-02 19:00:00 26.5 18 Sudeste 28 Este 0 1008.8 -- 56
2020-09-02 18:00:00 26.9 19 Sudeste 30 Sudeste 0 1008.6 -- 55
2020-09-02 17:00:00 28.2 17 Sudeste 30 Este 0 1008.3 -- 50
2020-09-02 16:00:00 27.8 15 Este 28 Sudeste 0 1008.4 -- 53
2020-09-02 15:00:00 27.2 15 Este 30 Este 0 1008.9 -- 55
2020-09-02 14:00:00 26.8 19 Este 37 Este 0 1009 -- 55
2020-09-02 13:00:00 26.9 12 Nordeste 26 Este 0 1009.3 -- 50
2020-09-02 12:00:00 26.3 13 Nordeste 30 Nordeste 0 1009.5 -- 50
2020-09-02 11:00:00 25.6 20 Nordeste 30 Nordeste 0 1009.3 -- 47
2020-09-02 10:00:00 25 20 Nordeste 32 Nordeste 0 1008.8 -- 47
2020-09-02 09:00:00 22 9 Noroeste 17 Noroeste 0 1008.1 -- 72
2020-09-02 08:00:00 20.1 5 Noroeste 11 Noroeste 0 1007.7 -- 81
2020-09-02 07:00:00 20.6 5 Oeste 17 Noroeste 0 1007 -- 79
2020-09-02 06:00:00 20.8 11 Noroeste 15 Noroeste 0 1006.6 -- 79
2020-09-02 05:00:00 20.9 8 Noroeste 11 Noroeste 0 1006.4 -- 79
2020-09-02 04:00:00 21.7 2 Noroeste 15 Noroeste 0 1006.4 -- 75
2020-09-02 03:00:00 22.1 11 Norte 13 Noroeste 0 1006.4 -- 73
2020-09-02 02:00:00 22.3 10 Norte 15 Norte 0 1006.4 -- 71
2020-09-02 01:00:00 22.8 10 Noroeste 13 Norte 0 1006.3 -- 69
2020-09-02 00:00:00 22.7 7 Oeste 9 Noroeste 0 1006.2 -- 68
2020-09-01 23:00:00 24.1 7 Nordeste 13 Este 0 1006.1 -- 62
2020-09-01 22:00:00 24.2 10 Este 18 Este 0 1005.9 -- 63
2020-09-01 21:00:00 24.2 13 Este 18 Este 0 1005.1 -- 64
2020-09-01 20:00:00 24.9 13 Este 21 Este 0 1004.3 -- 61
2020-09-01 19:00:00 25.6 15 Este 22 Sudeste 0 1004.2 -- 60
2020-09-01 18:00:00 26.7 17 Este 24 Este 0 1004.3 -- 55
2020-09-01 17:00:00 25.7 12 Sudeste 28 Sudeste 0 1004.6 -- 61
2020-09-01 16:00:00 25.8 15 Sudeste 28 Este 0 1004.9 -- 57
2020-09-01 15:00:00 25.2 13 Sudeste 21 Sudeste 0 1006.1 -- 54
2020-09-01 14:00:00 25.4 10 Este 17 Este 0 1006.1 -- 53
2020-09-01 13:00:00 25.3 4 Sudeste 13 Sudeste 0 1006.8 -- 54
2020-09-01 12:00:00 24.9 6 Sudeste 13 Este 0 1007.4 -- 55
2020-09-01 11:00:00 23 4 Este 9 Sudeste 0 1007.3 -- 55
2020-09-01 10:00:00 21.8 3 Nordeste 11 Oeste 0 1007.4 -- 55
2020-09-01 09:00:00 19.2 6 Oeste 11 Oeste 0 1007.2 -- 69
2020-09-01 08:00:00 18 6 Oeste 13 Oeste 0 1007.2 -- 75
2020-09-01 07:00:00 18.1 12 Oeste 24 Noroeste 0 1007 -- 71
2020-09-01 06:00:00 18.4 9 Oeste 18 Noroeste 0 1007.3 -- 73
2020-09-01 05:00:00 18.9 12 Noroeste 15 Noroeste 0 1007.6 -- 72
2020-09-01 04:00:00 19.3 9 Oeste 13 Noroeste 0 1008.2 -- 73
2020-09-01 03:00:00 20.4 12 Noroeste 21 Noroeste 0 1008.7 -- 69
2020-09-01 02:00:00 21 16 Noroeste 22 Noroeste 0 1009.5 -- 68
2020-09-01 01:00:00 22.1 13 Noroeste 17 Noroeste 0 1009.6 -- 66
2020-09-01 00:00:00 23.3 8 Norte 17 Norte 0 1009.6 -- 63
2020-08-31 23:00:00 23.5 9 Norte 17 Norte 0 1009.5 -- 63
2020-08-31 22:00:00 23.9 6 Este 17 Este 0 1009.4 -- 63
2020-08-31 21:00:00 23.9 9 Este 21 Este 0 1008.8 -- 58
2020-08-31 20:00:00 24.4 15 Sudeste 30 Sudeste 0 1008.7 -- 54
2020-08-31 19:00:00 25.1 18 Sudeste 30 Sudeste 0 1008.7 -- 49
2020-08-31 18:00:00 26.2 23 Sudeste 33 Sudeste 0 1008.7 -- 40
2020-08-31 17:00:00 27.1 26 Sudeste 37 Sudeste 0 1008.8 -- 39
2020-08-31 16:00:00 27.5 24 Sudeste 33 Sudeste 0 1009.3 -- 35
2020-08-31 15:00:00 27.6 22 Sudeste 32 Sudeste 0 1010.1 -- 33
2020-08-31 14:00:00 27.4 16 Sudeste 28 Sudeste 0 1010.7 -- 32
2020-08-31 13:00:00 27 14 Sudeste 22 Sudeste 0 1011.7 -- 32
2020-08-31 12:00:00 25.8 9 Sudeste 18 Sur 0 1012.2 -- 37
2020-08-31 11:00:00 24.3 4 Sudoeste 9 Sur 0 1012.4 -- 38
2020-08-31 10:00:00 21.2 2 Oeste 13 Oeste 0 1012.2 -- 42
2020-08-31 09:00:00 18.9 2 Oeste 11 Noroeste 0 1012 -- 47
2020-08-31 08:00:00 17.3 4 Oeste 26 Noroeste 0 1011.3 -- 52
2020-08-31 07:00:00 17.6 17 Noroeste 26 Noroeste 0 1010.6 -- 51
2020-08-31 06:00:00 18.1 17 Noroeste 30 Noroeste 0 1010.2 -- 52
2020-08-31 05:00:00 18.3 21 Noroeste 28 Noroeste 0 1010.1 -- 59
2020-08-31 04:00:00 18.4 16 Noroeste 21 Noroeste 0 1010.3 -- 60
2020-08-31 03:00:00 18.6 10 Noroeste 17 Noroeste 0 1010.2 -- 60
2020-08-31 02:00:00 18.5 7 Noroeste 11 Oeste 0 1010.7 -- 60
2020-08-31 01:00:00 19.2 5 Oeste 13 Oeste 0 1010.6 -- 56
2020-08-31 00:00:00 20.3 9 Oeste 18 Norte 0 1010.2 -- 53
2020-08-30 23:00:00 20.9 7 Noroeste 11 Oeste 0 1009.4 -- 52
2020-08-30 22:00:00 22.2 4 Sudeste 13 Sudeste 0 1008.3 -- 47
2020-08-30 21:00:00 22.9 10 Este 21 Sudeste 0 1007.1 -- 46
2020-08-30 20:00:00 23.9 16 Sudeste 28 Sudeste 0 1006.3 -- 43
2020-08-30 19:00:00 24.6 19 Sudeste 33 Sudeste 0 1005.8 -- 39
2020-08-30 18:00:00 25.6 21 Sudeste 33 Sudeste 0 1005.4 -- 36
2020-08-30 17:00:00 26 21 Sudeste 32 Sudeste 0 1005 -- 31
2020-08-30 16:00:00 25.8 23 Este 35 Este 0 1005.5 -- 31
2020-08-30 15:00:00 26.2 21 Sudeste 33 Este 0 1005.6 -- 33
2020-08-30 14:00:00 26.1 16 Sudeste 28 Sudeste 0 1005.8 -- 30
2020-08-30 13:00:00 25.8 7 Sudeste 21 Norte 0 1006.2 -- 25
2020-08-30 12:00:00 24.3 10 Nordeste 21 Norte 0 1006.3 -- 27
2020-08-30 11:00:00 22.4 9 Norte 26 Noroeste 0 1006.2 -- 32
2020-08-30 10:00:00 20.7 9 Oeste 21 Oeste 0 1006 -- 40
2020-08-30 09:00:00 18.7 12 Noroeste 15 Oeste 0 1005.6 -- 51
2020-08-30 08:00:00 15.5 10 Oeste 13 Oeste 0 1004.8 -- 65
2020-08-30 07:00:00 15.5 9 Oeste 15 Oeste 0 1004 -- 64
2020-08-30 06:00:00 15.8 8 Oeste 17 Oeste 0 1003.7 -- 65
2020-08-30 05:00:00 16.6 13 Oeste 18 Noroeste 0 1003.5 -- 66
2020-08-30 04:00:00 17.5 9 Noroeste 13 Noroeste 0 1003.3 -- 63
2020-08-30 03:00:00 17.8 5 Oeste 17 Noroeste 0 1003.3 -- 75
2020-08-30 02:00:00 18.9 10 Noroeste 17 Oeste 0 1002.9 -- 74
2020-08-30 01:00:00 20 11 Oeste 22 Norte 0 1002.3 -- 65
2020-08-30 00:00:00 20.9 17 Noroeste 22 Noroeste 0 1001.8 -- 64
2020-08-29 23:00:00 20.9 11 Oeste 15 Oeste 0 1001.1 -- 69
2020-08-29 22:00:00 21.9 8 Noroeste 18 Noroeste 0 1000.1 -- 66
2020-08-29 21:00:00 22.6 3 Norte 18 Norte 0 998.9 -- 53
2020-08-29 20:00:00 22.9 7 Nordeste 21 Nordeste 0 998.3 -- 54
2020-08-29 19:00:00 23.9 14 Norte 35 Nordeste 0 997.7 -- 49
2020-08-29 18:00:00 24.6 23 Nordeste 37 Este 0 997.6 -- 51
2020-08-29 17:00:00 26.3 27 Este 39 Este 0 997.1 -- 49
2020-08-29 16:00:00 26.5 25 Este 37 Este 0 996.8 -- 45
2020-08-29 15:00:00 25.4 24 Este 37 Este 0 996.9 -- 44
2020-08-29 14:00:00 27.2 22 Este 35 Este 0 996.3 -- 44
2020-08-29 13:00:00 27.6 17 Este 26 Sudeste 0 996.8 -- 43
2020-08-29 12:00:00 26.3 18 Este 28 Este 0 997 -- 47
2020-08-29 11:00:00 26.2 10 Este 18 Este 0 997 -- 47
2020-08-29 10:00:00 25 9 Nordeste 17 Este 0 996.9 -- 54
2020-08-29 09:00:00 24.1 17 Este 28 Este 0 996.7 -- 59
2020-08-29 08:00:00 24.3 6 Este 18 Sudeste 0 996.2 -- 55
2020-08-29 07:00:00 24.2 8 Sudeste 15 Este 0 995.6 -- 56
2020-08-29 06:00:00 24.4 8 Este 21 Este 0 995.3 -- 57
2020-08-29 05:00:00 25 13 Este 18 Este 0 995.4 -- 60
2020-08-29 04:00:00 24.4 5 Oeste 11 Oeste 0 995.5 -- 82
2020-08-29 03:00:00 24.5 6 Noroeste 15 Norte 0 995.8 -- 81
2020-08-29 02:00:00 25.9 9 Norte 13 Nordeste 0 995.6 -- 74
2020-08-29 01:00:00 26.3 9 Nordeste 15 Este 0 995.8 -- 74
2020-08-29 00:00:00 26.5 10 Este 22 Este 0 995.9 -- 74
2020-08-28 23:00:00 26.6 13 Este 21 Este 0 996.1 -- 77
2020-08-28 22:00:00 26.8 11 Nordeste 32 Nordeste 0 995.8 -- 79
2020-08-28 21:00:00 27.2 13 Nordeste 30 Nordeste 0 995.8 -- 79
2020-08-28 20:00:00 27.9 22 Nordeste 35 Este 0 995.5 -- 75
2020-08-28 19:00:00 28.8 26 Nordeste 41 Nordeste 0 995.6 -- 74
2020-08-28 18:00:00 30.4 16 Este 28 Sudeste 0 995.3 -- 60
2020-08-28 17:00:00 30.7 17 Este 32 Este 0 995.5 -- 60
2020-08-28 16:00:00 31.4 19 Sudeste 26 Sudeste 0 996.5 -- 57
2020-08-28 15:00:00 31.7 16 Sudeste 30 Este 0 997.6 -- 57
2020-08-28 14:00:00 31.9 14 Sudeste 24 Este 0 998.6 -- 57
2020-08-28 13:00:00 31.7 11 Sudeste 18 Sur 0 999.6 -- 53
2020-08-28 12:00:00 29.7 6 Norte 13 Norte 0 1000.5 -- 62
2020-08-28 11:00:00 28.1 3 Nordeste 13 Norte 0 1001.1 -- 70
2020-08-28 10:00:00 26.6 9 Norte 21 Noroeste 0 1001.6 -- 74
2020-08-28 09:00:00 25 11 Noroeste 17 Noroeste 0 1001.9 -- 77
2020-08-28 08:00:00 24.5 6 Noroeste 9 Noroeste 0 1002 -- 83
2020-08-28 07:00:00 24 7 Noroeste 11 Noroeste 0 1002.1 -- 85
2020-08-28 06:00:00 23.5 8 Noroeste 11 Noroeste 0 1002.4 -- 88
2020-08-28 05:00:00 24.1 7 Noroeste -- -- 0 1002.4 -- 89
2020-08-28 04:00:00 24.2 0 Calma 5 Oeste 0 1003 -- 89
2020-08-28 03:00:00 24.6 5 Noroeste 5 Noroeste 0 1003.7 -- 89
2020-08-28 02:00:00 24.9 3 Oeste 8 Oeste 0 1004.4 -- 88
2020-08-28 01:00:00 25.5 5 Sudoeste 9 Oeste 0 1005 -- 87
2020-08-28 00:00:00 26.6 4 Norte 24 Nordeste 0 1005.5 -- 85
2020-08-27 23:00:00 26.9 14 Nordeste 22 Nordeste 0 1006 -- 84
2020-08-27 22:00:00 27 12 Nordeste 22 Este 0 1005.9 -- 83
2020-08-27 21:00:00 27.4 14 Este 22 Nordeste 0 1005.6 -- 82
2020-08-27 20:00:00 28.4 16 Nordeste 26 Este 0 1005.5 -- 75
2020-08-27 19:00:00 29.3 19 Este 30 Este 0 1005.9 -- 71
2020-08-27 18:00:00 30.2 19 Este 28 Este 0 1006.2 -- 64
2020-08-27 17:00:00 30.6 19 Este 30 Este 0 1006.6 -- 60
2020-08-27 16:00:00 31.8 18 Este 30 Sudeste 0 1007.1 -- 55
2020-08-27 15:00:00 31.9 17 Este 30 Este 0 1008.1 -- 54
2020-08-27 14:00:00 32 14 Este 24 Este 0 1008.5 -- 50
2020-08-27 13:00:00 31.8 13 Este 21 Sudeste 0 1009.3 -- 52
2020-08-27 12:00:00 30.9 8 Sudeste 17 Este 0 1009.7 -- 52
2020-08-27 11:00:00 29.7 4 Nordeste 13 Nordeste 0 1009.9 -- 57
2020-08-27 10:00:00 26.9 3 Noroeste 9 Norte 0 1009.8 -- 63
2020-08-27 09:00:00 24.1 3 Oeste 11 Noroeste 0 1010 -- 74
2020-08-27 08:00:00 22.1 9 Noroeste 13 Noroeste 0 1009.8 -- 81
2020-08-27 07:00:00 22.5 9 Noroeste 17 Noroeste 0 1009.5 -- 81
2020-08-27 06:00:00 22 5 Noroeste 8 Oeste 0 1009.4 -- 86
2020-08-27 05:00:00 22.7 5 Oeste 9 Noroeste 0 1009.5 -- 83
2020-08-27 04:00:00 23.6 7 Noroeste 9 Noroeste 0 1009.9 -- 81
2020-08-27 03:00:00 24.1 7 Noroeste 11 Oeste 0 1010.2 -- 82
2020-08-27 02:00:00 24.7 8 Noroeste 9 Noroeste 0 1010.6 -- 80
2020-08-27 01:00:00 27 8 Nordeste 11 Nordeste 0 1010.8 -- 70
2020-08-27 00:00:00 27 6 Nordeste 17 Nordeste 0 1010.9 -- 74
2020-08-26 23:00:00 27.2 10 Nordeste 30 Nordeste 0 1010.9 -- 77
2020-08-26 22:00:00 27.6 16 Nordeste 28 Nordeste 0 1010.2 -- 79
2020-08-26 21:00:00 27.8 17 Nordeste 26 Este 0 1009.4 -- 79
2020-08-26 20:00:00 28.8 17 Este 24 Este 0 1008.9 -- 73
2020-08-26 19:00:00 30.5 16 Este 28 Este 0 1008.8 -- 63
2020-08-26 18:00:00 31.2 17 Este 30 Este 0 1009.1 -- 57
2020-08-26 17:00:00 31.8 17 Sudeste 28 Sudeste 0 1009.3 -- 60
2020-08-26 16:00:00 31.6 19 Sudeste 30 Sudeste 0 1009.8 -- 60
2020-08-26 15:00:00 32.1 17 Sudeste 26 Sudeste 0 1010.1 -- 57
2020-08-26 14:00:00 31.7 14 Sudeste 30 Este 0 1010.5 -- 59
2020-08-26 13:00:00 31.6 9 Sudeste 22 Este 0 1011 -- 58
2020-08-26 12:00:00 30.5 7 Sudeste 17 Nordeste 0 1011.4 -- 61
2020-08-26 11:00:00 29.1 0 Calma 11 Este 0 1011.4 -- 67
2020-08-26 10:00:00 26.6 4 Norte 9 Noroeste 0 1011.2 -- 77
2020-08-26 09:00:00 24.2 5 Noroeste 11 Noroeste 0 1010.8 -- 80
2020-08-26 08:00:00 22.3 8 Noroeste -- -- 0 1010.2 -- 88
2020-08-26 07:00:00 22.6 5 Noroeste 13 Noroeste 0 1009.6 -- 88
2020-08-26 06:00:00 22.9 6 Noroeste 8 Norte 0 1009.3 -- 90
2020-08-26 05:00:00 23.1 4 Noroeste 9 Noroeste 0 1009.2 -- 91
2020-08-26 04:00:00 23.5 5 Oeste 8 Oeste 0 1009.3 -- 90
2020-08-26 03:00:00 24.4 4 Oeste 15 Noroeste 0 1009.5 -- 88
2020-08-26 02:00:00 25.8 9 Norte 13 Norte 0 1009.6 -- 84
2020-08-26 01:00:00 26.3 10 Norte 18 Nordeste 0 1009.7 -- 83
2020-08-26 00:00:00 26.7 13 Nordeste 21 Nordeste 0 1009.4 -- 82
2020-08-25 23:00:00 27.1 12 Nordeste 30 Nordeste 0 1009.2 -- 81
2020-08-25 22:00:00 27.3 18 Nordeste 28 Nordeste 0 1008.3 -- 81
2020-08-25 21:00:00 27.5 17 Nordeste 26 Nordeste 0 1007.3 -- 81
2020-08-25 20:00:00 28.8 18 Nordeste 28 Nordeste 0 1006.7 -- 74
2020-08-25 19:00:00 30.7 18 Nordeste 30 Este 0 1006.6 -- 61
2020-08-25 18:00:00 32.3 19 Este 30 Este 0 1006.4 -- 46
2020-08-25 17:00:00 32.8 18 Sudeste 30 Este 0 1006.3 -- 47
2020-08-25 16:00:00 32.5 19 Sudeste 32 Sudeste 0 1006.5 -- 50
2020-08-25 15:00:00 32.5 20 Sudeste 32 Sudeste 0 1007.1 -- 53
2020-08-25 14:00:00 31.8 19 Sudeste 32 Este 0 1007.5 -- 57
2020-08-25 13:00:00 32.1 19 Sudeste 30 Sudeste 0 1007.6 -- 54
2020-08-25 12:00:00 31.1 9 Sudeste 22 Este 0 1008 -- 55
2020-08-25 11:00:00 29.1 8 Sur 18 Sur 0 1008.2 -- 64
2020-08-25 10:00:00 27.4 6 Sur 13 Sudeste 0 1008.3 -- 69
2020-08-25 09:00:00 24.8 5 Oeste 9 Oeste 0 1008.4 -- 80
2020-08-25 08:00:00 22.9 8 Noroeste 13 Noroeste 0 1008 -- 89
2020-08-25 07:00:00 22.9 9 Noroeste 13 Noroeste 0 1007.7 -- 91
2020-08-25 06:00:00 23.4 8 Noroeste 13 Noroeste 0 1007.8 -- 88
2020-08-25 05:00:00 24 10 Noroeste 18 Noroeste 0 1008 -- 86
2020-08-25 04:00:00 24.7 16 Noroeste 21 Noroeste 0 1008.1 -- 84
2020-08-25 03:00:00 25.3 13 Noroeste 21 Norte 0 1008.3 -- 84
2020-08-25 02:00:00 25.9 11 Norte 17 Norte 0 1008.6 -- 83
2020-08-25 01:00:00 26.5 11 Norte 17 Nordeste 0 1008.8 -- 79
2020-08-25 00:00:00 26.5 13 Este 21 Este 0 1008.7 -- 81
2020-08-24 23:00:00 26.7 12 Este 21 Este 0 1008.6 -- 77
2020-08-24 22:00:00 26.8 14 Este 24 Este 0 1008.1 -- 78
2020-08-24 21:00:00 27.4 16 Este 24 Nordeste 0 1007.5 -- 77
2020-08-24 20:00:00 28.6 14 Este 24 Este 0 1007 -- 69
2020-08-24 19:00:00 30 15 Este 28 Este 0 1007.1 -- 61
2020-08-24 18:00:00 29.8 18 Sudeste 32 Sudeste 0 1007.6 -- 63
2020-08-24 17:00:00 30.4 21 Sudeste 33 Este 0 1007.8 -- 61
2020-08-24 16:00:00 29.9 18 Este 35 Este 0 1008.4 -- 63
2020-08-24 15:00:00 30.2 21 Este 32 Este 0 1008.9 -- 58
2020-08-24 14:00:00 29.9 17 Este 33 Este 0 1009.3 -- 61
2020-08-24 13:00:00 28.1 19 Este 28 Este 0 1009.9 -- 69
2020-08-24 12:00:00 28 21 Este 30 Este 0 1010.4 -- 71
2020-08-24 11:00:00 28.3 4 Sudeste 15 Sudeste 0 1010.5 -- 69
2020-08-24 10:00:00 26.8 6 Sudoeste 11 Sudoeste 0 1010.1 -- 78
2020-08-24 09:00:00 25.8 3 Oeste 8 Oeste 0 1009.8 -- 84
2020-08-24 08:00:00 25 3 Oeste 8 Sudoeste 0 1009.6 -- 86
2020-08-24 07:00:00 24.4 6 Sudoeste 11 Noroeste 0 1009.2 -- 87
2020-08-24 06:00:00 24.5 7 Noroeste 11 Norte 0 1009 -- 86
2020-08-24 05:00:00 25.3 8 Noroeste 9 Noroeste 0 1009.2 -- 84
2020-08-24 04:00:00 25.2 4 Noroeste 9 Noroeste 0 1009.5 -- 84
2020-08-24 03:00:00 25.9 4 Norte 9 Norte 0 1009.6 -- 82
2020-08-24 02:00:00 26.2 6 Norte 9 Nordeste 0 1010.2 -- 80
2020-08-24 01:00:00 26.4 7 Norte 17 Norte 0 1010.5 -- 78
2020-08-24 00:00:00 26.4 8 Nordeste 18 Nordeste 0 1010.3 -- 79
2020-08-23 23:00:00 26.8 12 Nordeste 18 Nordeste 0 1010.5 -- 79
2020-08-23 22:00:00 27.2 12 Nordeste 17 Norte 0 1010.4 -- 80
2020-08-23 21:00:00 27.7 10 Nordeste 21 Este 0 1010 -- 78
2020-08-23 20:00:00 27.6 16 Este 30 Nordeste 0 1009.9 -- 75
2020-08-23 19:00:00 28.5 18 Este 32 Nordeste 0 1009.9 -- 75
2020-08-23 18:00:00 29.3 20 Este 37 Este 0 1010 -- 70
2020-08-23 17:00:00 30.2 25 Este 39 Este 0 1010.4 -- 64
2020-08-23 16:00:00 30.7 20 Este 32 Este 0 1011.1 -- 57
2020-08-23 15:00:00 30.4 21 Este 30 Este 0 1011.8 -- 56
2020-08-23 14:00:00 30.6 17 Este 30 Este 0 1012 -- 56
2020-08-23 13:00:00 30.2 19 Este 35 Este 0 1012.5 -- 59
2020-08-23 12:00:00 29.3 15 Nordeste 32 Nordeste 0 1012.9 -- 63
2020-08-23 11:00:00 28.2 17 Nordeste 28 Este 0 1013 -- 55
2020-08-23 10:00:00 26.9 8 Noroeste 15 Noroeste 0 1012.8 -- 73
2020-08-23 09:00:00 24.6 11 Noroeste 17 Noroeste 0 1012.9 -- 76
2020-08-23 08:00:00 24.1 8 Oeste 11 Noroeste 0 1012.6 -- 82
2020-08-23 07:00:00 24.5 7 Noroeste 9 Noroeste 0 1012.1 -- 80
2020-08-23 06:00:00 24 5 Noroeste 9 Noroeste 0 1011.6 -- 83
2020-08-23 05:00:00 24.2 5 Oeste 9 Noroeste 0 1011.7 -- 83
2020-08-23 04:00:00 24.8 5 Oeste 8 Noroeste 0 1011.6 -- 81
2020-08-23 03:00:00 25.5 7 Noroeste 11 Noroeste 0 1011.7 -- 79
2020-08-23 02:00:00 25.6 5 Noroeste 8 Noroeste 0 1011.8 -- 79
2020-08-23 01:00:00 26.2 3 Oeste 8 Oeste 0 1012.1 -- 77
2020-08-23 00:00:00 26.9 6 Oeste 13 Norte 0 1012.2 -- 74
2020-08-22 23:00:00 28.1 6 Norte 17 Nordeste 0 1012.3 -- 70
2020-08-22 22:00:00 28.3 8 Este 15 Este 0 1012 -- 71
2020-08-22 21:00:00 28.8 11 Este 21 Este 0 1011.3 -- 70
2020-08-22 20:00:00 29.9 15 Este 24 Este 0 1011 -- 64
2020-08-22 19:00:00 30.6 15 Este 30 Este 0 1010.6 -- 61
2020-08-22 18:00:00 31.1 18 Este 33 Este 0 1011 -- 59
2020-08-22 17:00:00 31.9 21 Este 32 Este 0 1010.9 -- 56
2020-08-22 16:00:00 32.3 18 Este 32 Este 0 1011.5 -- 53
2020-08-22 15:00:00 32.3 17 Sudeste 32 Este 0 1012 -- 53
2020-08-22 14:00:00 32.1 18 Este 28 Este 0 1012.3 -- 51
2020-08-22 13:00:00 31.3 17 Este 28 Este 0 1012.7 -- 60
2020-08-22 12:00:00 31 16 Este 32 Este 0 1012.9 -- 60
2020-08-22 11:00:00 29.7 12 Este 22 Nordeste 0 1012.8 -- 69
2020-08-22 10:00:00 28.1 0 Calma 11 Oeste 0 1012.2 -- 76
2020-08-22 09:00:00 24.4 10 Oeste 13 Oeste 0 1011.6 -- 79
2020-08-22 08:00:00 21.7 10 Oeste 11 Oeste 0 1010.7 -- 91
2020-08-22 07:00:00 22.2 6 Noroeste 8 Noroeste 0 1009.8 -- 89
2020-08-22 06:00:00 22.8 0 Calma 9 Noroeste 0 1009 -- 90
2020-08-22 05:00:00 23.2 2 Oeste 11 Noroeste 0 1008.4 -- 90
2020-08-22 04:00:00 23.8 8 Noroeste 9 Noroeste 0 1008.2 -- 90
2020-08-22 03:00:00 24.4 6 Oeste 8 Oeste 0 1008.2 -- 89
2020-08-22 02:00:00 25 4 Oeste 8 Oeste 0 1008.4 -- 87
2020-08-22 01:00:00 26.3 5 Sudeste 8 Sudeste 0 1008.2 -- 85
2020-08-22 00:00:00 26.7 3 Sudeste 13 Nordeste 0 1008 -- 83
2020-08-21 23:00:00 27.4 8 Este 13 Nordeste 0 1007.6 -- 80
2020-08-21 22:00:00 27.9 6 Nordeste 15 Nordeste 0 1006.9 -- 75
2020-08-21 21:00:00 28.5 12 Nordeste 17 Nordeste 0 1006 -- 76
2020-08-21 20:00:00 29.5 13 Este 22 Este 0 1005.5 -- 73
2020-08-21 19:00:00 31.2 14 Este 24 Sudeste 0 1005.4 -- 65
2020-08-21 18:00:00 31.9 17 Sudeste 26 Sudeste 0 1005.3 -- 61
2020-08-21 17:00:00 32.5 16 Sudeste 28 Sudeste 0 1005.3 -- 57
2020-08-21 16:00:00 33.3 16 Este 26 Este 0 1005.5 -- 51
2020-08-21 15:00:00 33.3 15 Sudeste 28 Este 0 1006 -- 50
2020-08-21 14:00:00 32.3 12 Sudeste 28 Sudeste 0 1006.2 -- 55
2020-08-21 13:00:00 32.1 10 Sudeste 21 Este 0 1006.5 -- 53
2020-08-21 12:00:00 31.3 4 Sudeste 15 Sudeste 0 1006.8 -- 54
2020-08-21 11:00:00 29.6 5 Sudeste 13 Este 0 1006.7 -- 60
2020-08-21 10:00:00 26.7 6 Noroeste 17 Norte 0 1006.4 -- 58
2020-08-21 09:00:00 24.7 11 Noroeste 15 Noroeste 0 1005.9 -- 64
2020-08-21 08:00:00 22.4 10 Noroeste 18 Noroeste 0 1005.5 -- 75
2020-08-21 07:00:00 22.3 6 Noroeste 15 Noroeste 0 1005 -- 79
2020-08-21 06:00:00 23.1 8 Noroeste 15 Noroeste 0 1004.5 -- 76
2020-08-21 05:00:00 23.4 5 Oeste 17 Noroeste 0 1004.2 -- 77
2020-08-21 04:00:00 23.9 11 Noroeste 17 Noroeste 0 1004.3 -- 81
2020-08-21 03:00:00 24.7 12 Noroeste 17 Noroeste 0 1004.4 -- 80
2020-08-21 02:00:00 25.8 13 Noroeste 15 Norte 0 1004.4 -- 83
2020-08-21 01:00:00 26.6 8 Norte 11 Nordeste 0 1004.5 -- 86
2020-08-21 00:00:00 26.8 9 Este 17 Nordeste 0 1004.3 -- 85